CheckWX is a tool to help pilots better visualize weather data.  It is not intended as a substitute for an official pre-flight weather briefing.

13:55:08 UTC

KBJC METAR
Rocky Mountain Metropolitan Airport
Denver, Colorado, USA
Current

1 hour ago

KBJC 261250Z 32008KT 40SM FEW120 SCT220 07/M01 A3007
Observed
Apr-26 @ 12:50 UTC
Wind
  • 320° at 8 KTS
Visibility
40 SM
Flight Rules
VFR
Cloud Levels
  • Few at 12,000' AGL
  • Scattered at 22,000' AGL
Temperature
C / 45°F
Dewpoint
-1°C / 30°F
Humidity
57%
Altimeter
30.07" Hg
Pressure
1018.32 hPa
Previous

2 hours ago

KBJC 261158Z AUTO 01005KT 10SM CLR 08/00 A3007 RMK AO2 LTG DSNT NW
Observed
Apr-26 @ 11:58 UTC
Wind
  • 010° at 5 KTS
Visibility
10 SM
Flight Rules
VFR
Cloud Levels
  • Clear skies
Temperature
C / 46°F
Dewpoint
C / 32°F
Humidity
57%
Altimeter
30.07" Hg
Pressure
1018.32 hPa
Previous

2 hours ago

KBJC 261155Z 00000KT 30SM FEW120 SCT220 08/M01 A3006
Observed
Apr-26 @ 11:55 UTC
Visibility
30 SM
Flight Rules
VFR
Cloud Levels
  • Few at 12,000' AGL
  • Scattered at 22,000' AGL
Temperature
C / 46°F
Dewpoint
-1°C / 30°F
Humidity
53%
Altimeter
30.06" Hg
Pressure
1017.92 hPa